Time;durP1;ratioP1;P1;durP2;ratioP2;P2;SDS_P1;SDS_P2;PMS_P1;PMS_P2;Temp;Humidity;BMP_temperature;BMP_pressure;BME280_temperature;BME280_humidity;BME280_pressure;Samples;Min_cycle;Max_cycle;Signal;HPM_P1;HPM_P2
2023/12/28 11:19:36;;;;;;;11.10;4.50;;;;;;;19.66;44.59;100094.95;108387;271;579504;-89
2023/12/28 11:23:38;;;;;;;10.30;5.20;;;;;;;20.91;45.70;100084.44;108094;271;576495;-90
2023/12/28 11:28:14;;;;;;;9.60;5.70;;;;;;;20.40;42.84;100144.61;108270;268;576599;-55
2023/12/28 11:30:54;;;;;;;7.30;5.70;;;;;;;16.66;42.61;100160.61;110252;256;39979;-57
2023/12/28 11:33:49;;;;;;;9.30;6.60;;;;;;;13.98;44.74;100161.20;110282;251;154578;-57
2023/12/28 11:36:48;;;;;;;9.80;6.50;;;;;;;12.26;46.78;100176.33;110448;252;40015;-57
2023/12/28 11:39:33;;;;;;;9.50;5.80;;;;;;;10.96;49.33;100180.09;110399;250;154491;-58
2023/12/28 11:42:12;;;;;;;9.90;6.00;;;;;;;10.02;51.21;100185.78;110256;250;540811;-57
2023/12/28 11:44:49;;;;;;;9.10;6.10;;;;;;;9.34;54.11;100170.74;110725;250;39570;-54
2023/12/28 11:47:28;;;;;;;9.50;5.70;;;;;;;8.90;55.58;100164.94;110482;248;152762;-53
2023/12/28 11:50:13;;;;;;;10.60;6.40;;;;;;;8.45;57.45;100168.02;110607;250;39795;-54
2023/12/28 11:52:53;;;;;;;9.20;6.00;;;;;;;8.16;58.12;100166.04;110513;248;153351;-54
2023/12/28 11:55:28;;;;;;;10.10;6.20;;;;;;;7.97;59.08;100160.84;110924;246;39987;-54
2023/12/28 11:58:04;;;;;;;9.00;5.90;;;;;;;7.82;59.61;100164.94;110726;245;153367;-54
2023/12/28 12:00:38;;;;;;;9.10;6.50;;;;;;;7.74;60.39;100165.45;110746;247;39496;-56
2023/12/28 12:03:18;;;;;;;8.80;5.70;;;;;;;7.63;61.39;100162.73;110819;244;153883;-57
2023/12/28 12:05:57;;;;;;;9.80;6.10;;;;;;;7.57;62.00;100171.58;110906;246;39022;-53
2023/12/28 12:08:35;;;;;;;11.40;6.20;;;;;;;7.53;62.78;100175.98;110965;246;39676;-54
2023/12/28 12:11:18;;;;;;;9.10;5.90;;;;;;;7.46;63.56;100168.91;110747;239;158389;-56
2023/12/28 12:14:05;;;;;;;9.40;6.10;;;;;;;7.46;64.05;100168.73;110969;246;40065;-57
2023/12/28 12:16:40;;;;;;;14.90;7.20;;;;;;;7.44;64.57;100176.88;110858;244;153203;-59
2023/12/28 12:19:17;;;;;;;11.00;6.30;;;;;;;7.44;65.23;100175.98;110969;246;38906;-56
2023/12/28 12:22:01;;;;;;;11.30;6.80;;;;;;;7.37;65.52;100173.67;110855;244;153917;-59
2023/12/28 12:24:42;;;;;;;11.40;6.30;;;;;;;7.35;65.77;100172.35;110939;246;40126;-56
2023/12/28 12:27:27;;;;;;;11.40;7.20;;;;;;;7.33;66.14;100172.56;110871;244;153547;-57
2023/12/28 12:30:09;;;;;;;13.70;7.10;;;;;;;7.32;66.46;100177.00;110927;245;39871;-60
2023/12/28 12:32:55;;;;;;;11.50;7.40;;;;;;;7.29;66.86;100175.02;110982;245;39015;-58
2023/12/28 12:35:37;;;;;;;10.60;6.80;;;;;;;7.27;67.39;100174.00;110793;246;39292;-56
2023/12/28 12:38:19;;;;;;;11.60;6.80;;;;;;;7.22;67.84;100170.79;110895;246;39474;-56
2023/12/28 12:40:57;;;;;;;9.40;6.60;;;;;;;7.21;68.10;100171.45;110836;244;153870;-59
2023/12/28 12:43:38;;;;;;;10.50;6.50;;;;;;;7.18;68.49;100168.39;110932;246;39782;-58
2023/12/28 12:46:13;;;;;;;13.40;7.50;;;;;;;7.19;69.06;100168.98;110827;244;153536;-61
2023/12/28 12:49:03;;;;;;;11.20;6.80;;;;;;;7.21;69.23;100167.54;110932;246;40915;-59
2023/12/28 12:51:41;;;;;;;10.00;6.20;;;;;;;7.18;69.92;100169.89;110780;244;153525;-54
2023/12/28 12:54:34;;;;;;;10.80;6.50;;;;;;;7.14;70.95;100165.23;110919;245;41029;-54
2023/12/28 12:57:08;;;;;;;9.70;5.90;;;;;;;7.07;71.66;100164.56;110809;245;153969;-54
2023/12/28 12:59:45;;;;;;;12.00;6.30;;;;;;;7.03;72.98;100154.48;110968;246;39853;-58
2023/12/28 13:02:23;;;;;;;7.50;5.30;;;;;;;7.02;72.10;100160.31;110937;246;39192;-55
2023/12/28 13:04:59;;;;;;;11.40;5.50;;;;;;;7.04;72.26;100156.67;110977;246;39099;-59
2023/12/28 13:07:40;;;;;;;9.50;5.50;;;;;;;7.10;72.39;100157.66;110956;246;41203;-59
2023/12/28 13:10:21;;;;;;;9.30;5.50;;;;;;;7.11;73.31;100156.13;110945;246;40892;-55
2023/12/28 13:12:56;;;;;;;10.30;5.80;;;;;;;7.13;72.70;100148.70;110979;246;39478;-55
2023/12/28 13:15:35;;;;;;;10.90;6.10;;;;;;;7.16;72.66;100150.77;110777;244;153687;-58
2023/12/28 13:18:16;;;;;;;11.50;6.20;;;;;;;7.18;72.73;100152.88;110879;246;41437;-57
2023/12/28 13:20:55;;;;;;;8.30;5.40;;;;;;;7.18;72.57;100156.36;110917;246;40250;-53
2023/12/28 13:23:40;;;;;;;9.00;5.10;;;;;;;7.20;72.60;100163.75;110564;245;154425;-55
2023/12/28 13:26:15;;;;;;;9.70;6.00;;;;;;;7.40;73.51;100166.96;110897;246;38956;-56
2023/12/28 13:28:57;;;;;;;9.80;6.10;;;;;;;7.50;73.61;100163.58;110974;246;40463;-57
2023/12/28 13:31:33;;;;;;;11.90;6.60;;;;;;;7.57;73.40;100166.77;110906;246;41023;-54
2023/12/28 13:34:12;;;;;;;8.70;5.90;;;;;;;7.59;73.37;100164.85;110965;246;41239;-54
2023/12/28 13:36:53;;;;;;;11.70;6.50;;;;;;;7.61;73.01;100168.27;110911;246;39291;-56
2023/12/28 13:39:32;;;;;;;11.50;6.20;;;;;;;7.62;73.11;100173.54;110927;246;39650;-58
2023/12/28 13:42:11;;;;;;;11.40;7.10;;;;;;;7.60;73.11;100170.35;110794;246;39743;-54
2023/12/28 13:44:47;;;;;;;12.30;6.60;;;;;;;7.57;73.19;100173.40;110915;246;38988;-62
2023/12/28 13:47:31;;;;;;;9.70;6.20;;;;;;;7.55;73.08;100173.06;110899;246;40945;-51
2023/12/28 13:50:11;;;;;;;10.70;6.40;;;;;;;7.54;73.14;100173.91;110903;246;39676;-54
2023/12/28 13:52:52;;;;;;;10.20;6.40;;;;;;;7.52;73.18;100175.94;110902;243;153611;-54
2023/12/28 13:55:33;;;;;;;11.30;7.10;;;;;;;7.46;73.21;100177.17;111029;245;41713;-59
2023/12/28 13:58:09;;;;;;;12.30;7.10;;;;;;;7.42;73.24;100175.34;110982;245;39302;-57
2023/12/28 14:00:47;;;;;;;12.10;7.00;;;;;;;7.38;73.50;100172.30;110965;245;39320;-58
2023/12/28 14:03:25;;;;;;;10.90;7.00;;;;;;;7.34;73.44;100172.39;110982;245;38848;-58
2023/12/28 14:06:06;;;;;;;11.90;6.70;;;;;;;7.32;73.70;100171.77;110991;245;41364;-58
2023/12/28 14:08:47;;;;;;;11.90;6.90;;;;;;;7.31;73.69;100173.00;110949;245;39609;-57
2023/12/28 14:11:26;;;;;;;13.60;7.00;;;;;;;7.29;73.74;100172.48;110798;244;155630;-54
2023/12/28 14:14:03;;;;;;;10.90;7.10;;;;;;;7.27;73.95;100168.84;110924;245;40575;-59
2023/12/28 14:16:37;;;;;;;14.40;7.70;;;;;;;7.23;73.82;100167.50;110855;244;153534;-51
2023/12/28 14:19:17;;;;;;;12.90;8.20;;;;;;;7.19;73.87;100163.81;110937;246;40741;-54
2023/12/28 14:21:54;;;;;;;12.00;7.50;;;;;;;7.16;73.93;100165.60;110852;244;153814;-58
2023/12/28 14:24:36;;;;;;;14.50;8.00;;;;;;;7.10;74.05;100168.14;110882;246;39668;-53
2023/12/28 14:27:13;;;;;;;12.20;7.30;;;;;;;7.07;74.26;100172.31;110727;246;42616;-55
2023/12/28 14:29:51;;;;;;;11.90;7.10;;;;;;;7.06;74.20;100176.33;110658;244;153716;-57
2023/12/28 14:32:27;;;;;;;12.00;7.10;;;;;;;7.07;74.57;100177.71;110998;246;39927;-58
2023/12/28 14:35:06;;;;;;;12.20;7.90;;;;;;;7.06;74.54;100178.28;110814;246;40090;-57
2023/12/28 14:37:42;;;;;;;12.00;7.80;;;;;;;7.07;74.63;100180.73;110984;246;39325;-54
2023/12/28 14:40:21;;;;;;;11.90;7.60;;;;;;;7.12;75.04;100178.70;110831;244;153739;-56
2023/12/28 14:43:02;;;;;;;11.50;7.00;;;;;;;7.22;74.90;100189.23;110962;246;39024;-57
2023/12/28 14:45:41;;;;;;;12.60;6.90;;;;;;;7.28;74.92;100186.75;110935;246;41359;-58
2023/12/28 14:48:23;;;;;;;11.60;6.70;;;;;;;7.24;74.68;100190.79;110797;244;155496;-53
2023/12/28 14:51:06;;;;;;;11.90;7.30;;;;;;;7.13;74.63;100188.68;111012;246;40441;-53
2023/12/28 14:53:47;;;;;;;14.20;7.30;;;;;;;7.02;74.68;100189.71;110796;246;155317;-52
2023/12/28 14:56:32;;;;;;;12.70;7.50;;;;;;;6.93;74.70;100190.58;110893;246;40354;-53
2023/12/28 14:59:10;;;;;;;13.10;7.40;;;;;;;6.80;74.79;100186.64;110800;244;153626;-53
2023/12/28 15:01:46;;;;;;;11.80;7.60;;;;;;;6.64;74.81;100179.16;110736;246;38759;-58
2023/12/28 15:04:20;;;;;;;14.70;7.80;;;;;;;6.48;74.95;100183.63;110897;246;39664;-58
2023/12/28 15:07:01;;;;;;;12.30;7.50;;;;;;;6.35;75.18;100182.91;110975;246;39562;-55
2023/12/28 15:09:39;;;;;;;11.50;7.00;;;;;;;6.22;75.18;100185.92;110952;246;39449;-53
2023/12/28 15:12:15;;;;;;;12.90;7.30;;;;;;;6.11;75.32;100183.97;110753;244;153893;-53
2023/12/28 15:14:51;;;;;;;12.90;8.00;;;;;;;6.00;75.62;100179.08;110981;246;39745;-53
2023/12/28 15:17:28;;;;;;;11.60;7.40;;;;;;;5.89;75.66;100178.67;110802;243;153401;-52
2023/12/28 15:20:07;;;;;;;14.10;7.50;;;;;;;5.80;75.90;100180.33;111016;246;39745;-53
2023/12/28 15:22:44;;;;;;;12.00;7.40;;;;;;;5.72;75.94;100177.10;110800;244;153416;-50
2023/12/28 15:25:22;;;;;;;13.40;7.40;;;;;;;5.63;76.10;100182.02;110923;246;40271;-57
2023/12/28 15:28:04;;;;;;;12.40;6.90;;;;;;;5.54;76.24;100181.34;110962;246;40491;-55
2023/12/28 15:30:46;;;;;;;10.60;6.80;;;;;;;5.46;76.44;100180.98;110771;247;39039;-58
2023/12/28 15:33:30;;;;;;;13.20;7.20;;;;;;;5.39;76.66;100188.98;110766;247;40619;-53
2023/12/28 15:36:10;;;;;;;11.40;7.50;;;;;;;5.35;76.92;100185.17;110588;244;155118;-51
2023/12/28 15:38:47;;;;;;;14.50;8.10;;;;;;;5.30;77.02;100184.73;110931;245;39523;-53
2023/12/28 15:41:22;;;;;;;15.10;7.40;;;;;;;5.28;77.13;100185.38;110843;245;154116;-53
2023/12/28 15:44:00;;;;;;;11.30;7.00;;;;;;;5.27;77.39;100187.72;110904;245;39740;-53
2023/12/28 15:46:42;;;;;;;14.70;7.70;;;;;;;5.31;77.72;100186.61;110810;244;155334;-54
2023/12/28 15:49:20;;;;;;;14.40;7.30;;;;;;;5.39;77.88;100186.70;110922;246;39235;-54
2023/12/28 15:52:01;;;;;;;15.00;9.00;;;;;;;5.44;77.95;100185.80;110969;246;39199;-56
2023/12/28 15:54:40;;;;;;;14.10;8.20;;;;;;;5.49;78.11;100182.59;110753;245;40240;-56
2023/12/28 15:57:21;;;;;;;16.30;8.50;;;;;;;5.50;78.19;100181.77;110906;246;39500;-57
2023/12/28 16:00:00;;;;;;;19.60;10.40;;;;;;;5.51;78.45;100180.59;110716;244;155164;-55
2023/12/28 16:02:41;;;;;;;22.60;17.60;;;;;;;5.54;78.61;100173.87;110981;246;41534;-55
2023/12/28 16:05:24;;;;;;;20.80;12.10;;;;;;;5.59;78.82;100168.29;110977;246;39674;-58
2023/12/28 16:08:01;;;;;;;18.90;10.60;;;;;;;5.66;78.91;100158.99;110988;246;38880;-57
2023/12/28 16:10:44;;;;;;;19.40;11.00;;;;;;;5.67;78.88;100147.98;110947;246;39802;-53
2023/12/28 16:13:22;;;;;;;17.60;10.70;;;;;;;5.62;78.73;100148.84;110940;246;39734;-53
2023/12/28 16:15:58;;;;;;;21.70;11.70;;;;;;;5.56;78.80;100144.16;110952;246;41608;-56
2023/12/28 16:18:37;;;;;;;17.20;11.00;;;;;;;5.52;78.84;100136.39;110781;244;154362;-53
2023/12/28 16:21:14;;;;;;;18.80;12.00;;;;;;;5.49;79.04;100135.41;110944;246;39650;-57
2023/12/28 16:23:49;;;;;;;18.60;10.60;;;;;;;5.47;78.96;100141.19;110783;244;154346;-63
2023/12/28 16:26:29;;;;;;;19.50;11.00;;;;;;;5.40;79.11;100143.21;110931;246;39710;-54
2023/12/28 16:29:08;;;;;;;16.40;11.00;;;;;;;5.34;79.31;100147.98;110943;246;38944;-55
2023/12/28 16:31:47;;;;;;;19.10;11.50;;;;;;;5.32;79.37;100150.29;110913;246;39348;-54
2023/12/28 16:34:24;;;;;;;22.90;12.70;;;;;;;5.27;79.28;100149.69;110941;246;39555;-55
2023/12/28 16:37:04;;;;;;;18.70;11.40;;;;;;;5.22;79.28;100155.24;110784;247;41537;-61
2023/12/28 16:39:53;;;;;;;19.20;11.40;;;;;;;5.22;79.45;100155.66;110896;247;39695;-58
2023/12/28 16:42:37;;;;;;;18.50;11.10;;;;;;;5.21;79.64;100157.35;110769;245;154526;-57
2023/12/28 16:45:18;;;;;;;18.60;11.30;;;;;;;5.21;79.47;100156.66;110943;246;40456;-58
2023/12/28 16:47:57;;;;;;;16.00;10.40;;;;;;;5.18;79.46;100162.17;110958;246;40338;-58
2023/12/28 16:50:47;;;;;;;16.40;10.90;;;;;;;5.17;79.58;100160.67;110903;246;38966;-54
2023/12/28 16:53:35;;;;;;;18.50;11.60;;;;;;;5.19;79.68;100163.69;110819;246;154221;-56
2023/12/28 16:56:13;;;;;;;18.70;11.80;;;;;;;5.16;79.59;100163.64;110882;246;40119;-53
2023/12/28 16:58:52;;;;;;;17.20;10.60;;;;;;;5.16;79.57;100163.81;110791;244;154528;-53
2023/12/28 17:01:33;;;;;;;18.70;10.90;;;;;;;5.18;79.77;100162.65;110851;245;38993;-55
2023/12/28 17:04:08;;;;;;;20.80;11.30;;;;;;;5.22;79.70;100164.94;110993;245;40768;-53
2023/12/28 17:06:44;;;;;;;18.20;10.30;;;;;;;5.23;79.68;100164.42;110944;245;39229;-57
2023/12/28 17:09:20;;;;;;;16.90;10.20;;;;;;;5.22;79.68;100162.73;110961;245;40361;-57
2023/12/28 17:12:15;;;;;;;17.60;10.30;;;;;;;5.19;79.57;100165.05;110849;243;155057;-58
2023/12/28 17:14:56;;;;;;;19.10;10.60;;;;;;;5.15;79.66;100174.38;110935;245;39556;-53
2023/12/28 17:17:43;;;;;;;18.30;10.40;;;;;;;5.15;79.70;100178.84;110835;243;155974;-56
2023/12/28 17:20:21;;;;;;;16.50;10.50;;;;;;;5.19;79.87;100183.23;110990;245;39960;-57
2023/12/28 17:23:09;;;;;;;16.00;10.20;;;;;;;5.24;80.03;100185.53;110812;243;153895;-57
2023/12/28 17:26:00;;;;;;;21.70;10.70;;;;;;;5.26;80.11;100185.18;110965;245;39332;-56
2023/12/28 17:28:50;;;;;;;15.40;10.20;;;;;;;5.25;79.99;100189.39;110972;245;39755;-53
2023/12/28 17:31:28;;;;;;;17.30;9.90;;;;;;;5.26;80.02;100185.61;110916;245;39128;-57
2023/12/28 17:34:06;;;;;;;18.80;10.40;;;;;;;5.25;80.25;100189.19;110981;245;41312;-57
2023/12/28 17:36:44;;;;;;;17.40;9.80;;;;;;;5.27;80.11;100183.88;110816;243;155888;-53
2023/12/28 17:39:25;;;;;;;15.90;10.00;;;;;;;5.25;80.17;100186.51;110883;245;42534;-53
2023/12/28 17:42:01;;;;;;;17.50;9.60;;;;;;;5.31;80.36;100187.89;110890;243;155246;-53
2023/12/28 17:44:48;;;;;;;13.60;9.30;;;;;;;5.34;80.15;100189.52;110964;245;38985;-53
2023/12/28 17:47:28;;;;;;;17.40;10.00;;;;;;;5.37;80.31;100186.73;110864;243;154321;-57
2023/12/28 17:50:05;;;;;;;18.60;10.70;;;;;;;5.39;80.31;100185.49;110996;245;39451;-52
2023/12/28 17:52:40;;;;;;;15.20;10.40;;;;;;;5.38;80.30;100187.51;110980;245;39761;-54
2023/12/28 17:55:20;;;;;;;14.20;9.50;;;;;;;5.32;80.41;100187.98;110787;245;39298;-58
2023/12/28 17:57:58;;;;;;;17.10;9.70;;;;;;;5.31;80.35;100192.16;110963;245;41064;-51
2023/12/28 18:00:37;;;;;;;17.10;9.90;;;;;;;5.29;80.32;100192.75;110507;245;154770;-53
2023/12/28 18:03:15;;;;;;;15.90;10.50;;;;;;;5.28;80.24;100195.16;110874;246;39791;-53
2023/12/28 18:05:54;;;;;;;19.20;10.70;;;;;;;5.22;80.30;100194.77;110860;243;155416;-58
2023/12/28 18:08:30;;;;;;;19.50;11.00;;;;;;;5.15;80.29;100191.55;110920;246;40644;-57
2023/12/28 18:11:08;;;;;;;17.30;10.70;;;;;;;5.06;80.26;100194.61;110856;243;154870;-57
2023/12/28 18:13:45;;;;;;;17.40;10.80;;;;;;;5.02;80.41;100201.02;110958;246;38950;-57
2023/12/28 18:16:21;;;;;;;18.60;11.00;;;;;;;4.95;80.36;100198.97;111078;246;41405;-54
2023/12/28 18:19:00;;;;;;;19.50;10.60;;;;;;;4.97;80.68;100195.30;110830;243;155004;-52
2023/12/28 18:21:38;;;;;;;19.10;11.20;;;;;;;5.02;81.06;100193.48;111045;246;38998;-53
2023/12/28 18:24:20;;;;;;;17.80;11.40;;;;;;;5.06;81.12;100189.86;110899;243;155709;-54
2023/12/28 18:27:04;;;;;;;19.80;11.70;;;;;;;5.09;81.19;100185.23;110976;246;39211;-55
2023/12/28 18:29:40;;;;;;;18.10;11.40;;;;;;;5.14;81.18;100182.07;111101;246;40029;-55
2023/12/28 18:32:17;;;;;;;19.00;10.90;;;;;;;5.11;81.46;100176.77;111063;246;38883;-58
2023/12/28 18:34:53;;;;;;;19.20;11.50;;;;;;;5.12;81.57;100170.27;111045;246;39741;-48
2023/12/28 18:37:29;;;;;;;16.70;11.70;;;;;;;5.13;81.50;100176.27;110818;246;39105;-52
2023/12/28 18:40:05;;;;;;;20.50;11.20;;;;;;;5.09;81.40;100170.00;111029;246;40563;-56
2023/12/28 18:42:44;;;;;;;20.30;11.60;;;;;;;5.09;81.62;100170.54;110889;246;38807;-56
2023/12/28 18:45:19;;;;;;;19.30;11.10;;;;;;;5.08;81.39;100170.69;111039;246;39504;-57
2023/12/28 18:47:53;;;;;;;18.20;11.00;;;;;;;5.06;81.50;100169.11;110851;243;155688;-57
2023/12/28 18:50:36;;;;;;;19.50;11.40;;;;;;;5.09;81.66;100170.40;110866;246;39896;-53
2023/12/28 18:53:16;;;;;;;18.70;11.40;;;;;;;5.14;81.52;100171.48;110894;247;39201;-53
2023/12/28 18:55:53;;;;;;;18.50;10.90;;;;;;;5.11;81.45;100172.14;110872;247;39326;-51
2023/12/28 18:58:32;;;;;;;18.00;11.10;;;;;;;5.11;81.75;100170.63;110880;247;40001;-54
2023/12/28 19:01:17;;;;;;;17.20;11.00;;;;;;;5.09;81.65;100166.15;110603;247;154010;-53
2023/12/28 19:03:56;;;;;;;17.40;10.70;;;;;;;5.09;81.64;100170.07;110880;247;38912;-54
2023/12/28 19:06:32;;;;;;;15.60;10.30;;;;;;;5.05;81.49;100166.00;110715;243;154638;-52
2023/12/28 19:09:08;;;;;;;18.10;11.10;;;;;;;5.03;81.72;100168.76;110858;247;39128;-52
2023/12/28 19:11:44;;;;;;;18.70;11.40;;;;;;;5.02;81.98;100168.42;110723;243;154703;-53
2023/12/28 19:14:23;;;;;;;15.10;9.90;;;;;;;5.04;81.83;100171.29;110828;247;39630;-53
2023/12/28 19:16:59;;;;;;;21.70;13.10;;;;;;;5.01;82.07;100172.13;110906;247;39187;-54
2023/12/28 19:19:36;;;;;;;17.40;11.40;;;;;;;5.03;82.08;100171.43;110838;246;39616;-54
2023/12/28 19:22:16;;;;;;;17.50;10.70;;;;;;;5.00;82.06;100175.51;110896;247;39391;-53
2023/12/28 19:24:52;;;;;;;19.50;10.80;;;;;;;5.00;82.04;100175.71;110698;243;154377;-51
2023/12/28 19:27:26;;;;;;;21.20;12.20;;;;;;;4.98;82.21;100177.13;110904;247;40756;-52
2023/12/28 19:30:06;;;;;;;17.30;10.10;;;;;;;4.97;82.31;100171.88;110901;247;40707;-53
2023/12/28 19:32:43;;;;;;;16.90;10.70;;;;;;;4.96;82.18;100171.44;110898;247;39049;-53
2023/12/28 19:35:18;;;;;;;19.40;11.40;;;;;;;4.94;82.08;100174.64;110876;247;40253;-52
2023/12/28 19:37:56;;;;;;;20.60;12.20;;;;;;;4.92;82.33;100170.67;110846;246;39802;-53
2023/12/28 19:40:36;;;;;;;18.10;12.10;;;;;;;4.92;82.49;100163.25;110935;246;39472;-55
2023/12/28 19:43:17;;;;;;;16.60;10.70;;;;;;;4.92;82.53;100164.15;110035;245;154214;-53
2023/12/28 19:45:56;;;;;;;15.70;9.60;;;;;;;4.95;82.80;100164.44;110911;247;39202;-56
2023/12/28 19:48:38;;;;;;;17.80;11.70;;;;;;;5.01;83.09;100165.55;110697;246;178927;-56
2023/12/28 19:51:21;;;;;;;21.20;10.70;;;;;;;5.08;82.82;100170.16;110860;247;40023;-57
2023/12/28 19:53:56;;;;;;;17.60;10.70;;;;;;;5.08;82.69;100167.11;110614;246;154117;-57
2023/12/28 19:56:34;;;;;;;17.30;10.70;;;;;;;5.08;82.68;100163.00;110940;247;40715;-56
2023/12/28 19:59:13;;;;;;;19.10;10.90;;;;;;;5.06;82.72;100161.41;110885;247;39670;-57
2023/12/28 20:01:55;;;;;;;19.70;11.00;;;;;;;5.05;82.49;100166.00;110703;244;154975;-53
2023/12/28 20:04:32;;;;;;;17.20;11.40;;;;;;;5.02;82.50;100164.58;110927;247;38595;-51
2023/12/28 20:07:08;;;;;;;19.90;10.90;;;;;;;4.98;82.64;100163.04;110773;244;153805;-56
2023/12/28 20:09:47;;;;;;;19.60;11.00;;;;;;;4.93;82.65;100166.10;110789;247;40704;-56
2023/12/28 20:12:31;;;;;;;16.50;11.10;;;;;;;4.91;82.87;100166.05;110713;246;154411;-57
2023/12/28 20:15:13;;;;;;;17.60;11.10;;;;;;;4.88;82.72;100168.55;110855;247;39067;-57
2023/12/28 20:17:55;;;;;;;20.20;11.70;;;;;;;4.86;82.94;100167.86;110753;244;155824;-57
2023/12/28 20:20:38;;;;;;;18.40;11.60;;;;;;;4.91;83.05;100170.39;110847;247;40911;-59
2023/12/28 20:23:20;;;;;;;19.00;10.40;;;;;;;4.94;83.01;100170.23;110915;247;39499;-58
2023/12/28 20:25:56;;;;;;;16.30;10.60;;;;;;;4.96;83.02;100169.60;110808;245;39520;-59
2023/12/28 20:28:32;;;;;;;21.40;11.50;;;;;;;4.99;83.12;100163.29;110896;247;39078;-63
2023/12/28 20:31:09;;;;;;;19.70;11.00;;;;;;;5.04;83.07;100160.07;110782;243;154652;-57
2023/12/28 20:33:54;;;;;;;17.70;11.30;;;;;;;5.01;82.85;100160.92;110889;247;39724;-54
2023/12/28 20:36:32;;;;;;;;;;;;;;;4.97;83.02;100159.03;110798;243;155752;-57
2023/12/28 20:39:11;;;;;;;17.90;11.90;;;;;;;4.93;83.06;100163.66;110906;246;40108;-52
2023/12/28 20:41:50;;;;;;;18.10;11.60;;;;;;;4.90;83.23;100163.84;110759;244;153723;-51
2023/12/28 20:44:36;;;;;;;22.60;11.50;;;;;;;4.83;82.98;100165.34;110707;247;39708;-53
2023/12/28 20:47:23;;;;;;;16.00;11.10;;;;;;;4.78;83.34;100165.64;110771;247;39746;-57
2023/12/28 20:50:04;;;;;;;19.10;12.30;;;;;;;4.75;83.24;100165.43;110800;247;39803;-57
2023/12/28 20:52:49;;;;;;;20.40;12.00;;;;;;;4.69;83.21;100165.15;110964;246;40191;-56
2023/12/28 20:55:26;;;;;;;20.30;11.90;;;;;;;4.67;83.15;100168.95;110718;245;154600;-56
2023/12/28 20:58:05;;;;;;;18.40;10.50;;;;;;;4.69;83.40;100171.23;110889;247;39946;-57
2023/12/28 21:00:47;;;;;;;18.10;11.70;;;;;;;4.72;83.51;100171.06;110628;245;154010;-57
2023/12/28 21:03:29;;;;;;;20.50;11.90;;;;;;;4.76;83.61;100174.90;110887;247;39338;-57
2023/12/28 21:06:04;;;;;;;17.90;11.70;;;;;;;4.79;83.48;100173.25;110752;245;154807;-55
2023/12/28 21:08:42;;;;;;;20.10;12.20;;;;;;;4.84;83.47;100167.86;110781;247;40140;-56
2023/12/28 21:11:18;;;;;;;19.80;11.70;;;;;;;4.85;83.47;100163.00;110858;246;40455;-56
2023/12/28 21:14:02;;;;;;;19.60;11.90;;;;;;;4.81;83.47;100159.44;110694;245;154546;-55
2023/12/28 21:16:40;;;;;;;21.00;12.40;;;;;;;4.75;83.37;100157.94;110873;247;39044;-58
2023/12/28 21:19:21;;;;;;;20.20;12.90;;;;;;;4.67;83.39;100166.91;110719;244;155284;-57
2023/12/28 21:22:02;;;;;;;19.60;11.60;;;;;;;4.64;83.57;100166.23;111021;246;40613;-50
2023/12/28 21:24:43;;;;;;;19.30;11.50;;;;;;;4.65;83.79;100169.80;110829;243;154417;-52
2023/12/28 21:27:22;;;;;;;19.50;11.20;;;;;;;4.67;83.85;100171.06;111022;246;41132;-58
2023/12/28 21:29:56;;;;;;;17.40;10.90;;;;;;;4.65;83.82;100170.58;110808;243;155535;-58
2023/12/28 21:32:37;;;;;;;17.60;10.90;;;;;;;4.65;83.85;100172.23;110901;247;39497;-56
2023/12/28 21:35:22;;;;;;;17.00;10.40;;;;;;;4.65;83.95;100169.66;110865;247;39800;-57
2023/12/28 21:38:02;;;;;;;16.10;10.70;;;;;;;4.64;83.80;100167.13;110769;246;39244;-57
2023/12/28 21:40:43;;;;;;;19.80;11.70;;;;;;;4.61;83.87;100168.67;110957;247;39120;-53
2023/12/28 21:43:23;;;;;;;21.00;12.00;;;;;;;4.59;83.85;100163.92;110734;245;154406;-53
2023/12/28 21:46:01;;;;;;;17.00;11.00;;;;;;;4.53;83.88;100163.27;110725;247;39071;-56
2023/12/28 21:48:44;;;;;;;15.70;10.30;;;;;;;4.47;84.04;100162.86;110562;247;154759;-58
2023/12/28 21:51:21;;;;;;;15.90;10.40;;;;;;;4.43;84.00;100162.13;110722;248;39988;-52
2023/12/28 21:54:00;;;;;;;18.00;10.40;;;;;;;4.40;83.97;100169.62;110600;247;154769;-52
2023/12/28 21:56:38;;;;;;;17.40;10.40;;;;;;;4.40;84.19;100168.86;110731;248;39628;-52
2023/12/28 21:59:18;;;;;;;16.00;10.30;;;;;;;4.41;84.17;100168.82;110758;248;40535;-52
2023/12/28 22:01:56;;;;;;;17.00;10.20;;;;;;;4.38;84.18;100166.36;110579;245;153735;-53
2023/12/28 22:04:34;;;;;;;18.10;10.30;;;;;;;4.39;84.16;100159.23;110757;248;38923;-54
2023/12/28 22:07:11;;;;;;;17.80;10.20;;;;;;;4.37;84.14;100161.85;110598;245;154360;-58
2023/12/28 22:09:49;;;;;;;17.20;10.80;;;;;;;4.35;84.18;100158.16;110755;247;39568;-57
2023/12/28 22:12:31;;;;;;;17.80;11.50;;;;;;;4.37;84.34;100148.31;110650;245;153895;-58
2023/12/28 22:15:12;;;;;;;17.80;11.00;;;;;;;4.36;84.27;100153.02;110717;248;39391;-56
2023/12/28 22:17:49;;;;;;;15.10;10.20;;;;;;;4.32;84.34;100151.21;110639;245;153702;-56
2023/12/28 22:20:31;;;;;;;15.90;10.50;;;;;;;4.27;84.26;100153.11;110769;248;39195;-53
2023/12/28 22:23:08;;;;;;;19.30;10.90;;;;;;;4.23;84.34;100153.20;110757;248;39110;-53
2023/12/28 22:25:49;;;;;;;16.10;10.30;;;;;;;4.18;84.32;100147.41;110644;248;155192;-55
2023/12/28 22:28:26;;;;;;;15.50;9.40;;;;;;;4.19;84.57;100149.11;110773;247;38854;-57
2023/12/28 22:31:03;;;;;;;17.20;10.70;;;;;;;4.22;84.70;100153.13;110592;245;154366;-50
2023/12/28 22:33:44;;;;;;;16.90;10.00;;;;;;;4.29;84.78;100154.73;110699;248;39017;-54
2023/12/28 22:36:19;;;;;;;20.40;10.00;;;;;;;4.35;84.86;100151.70;110649;245;154954;-56
2023/12/28 22:38:59;;;;;;;15.60;9.80;;;;;;;4.37;84.62;100147.30;110722;248;39955;-57
2023/12/28 22:41:39;;;;;;;16.00;9.80;;;;;;;4.34;84.65;100144.41;110763;248;39720;-55
2023/12/28 22:44:16;;;;;;;17.20;9.80;;;;;;;4.38;84.77;100146.25;110700;247;39986;-55
2023/12/28 22:46:58;;;;;;;19.70;10.50;;;;;;;4.43;84.85;100145.78;110767;248;39483;-57
2023/12/28 22:49:35;;;;;;;17.50;10.10;;;;;;;4.44;84.61;100144.92;110725;245;153720;-57
2023/12/28 22:52:10;;;;;;;16.90;9.30;;;;;;;4.40;84.62;100143.77;110796;247;41026;-55
2023/12/28 22:58:47;;;;;;;18.40;10.90;;;;;;;4.28;84.71;100152.68;110799;247;39504;-63
2023/12/28 23:01:24;;;;;;;16.80;9.70;;;;;;;4.25;84.69;100149.35;110599;246;154636;-65
2023/12/28 23:03:58;;;;;;;15.20;10.70;;;;;;;4.27;84.75;100146.55;110785;248;39756;-63
2023/12/28 23:06:36;;;;;;;17.90;9.50;;;;;;;4.26;84.77;100148.63;110593;245;155194;-59
2023/12/28 23:09:20;;;;;;;14.10;9.60;;;;;;;4.25;84.85;100141.59;110743;248;39228;-50
2023/12/28 23:11:59;;;;;;;14.80;9.70;;;;;;;4.24;84.74;100133.41;110652;244;153430;-56
2023/12/28 23:14:35;;;;;;;16.60;10.30;;;;;;;4.21;84.69;100130.77;110709;247;39613;-59
2023/12/28 23:17:12;;;;;;;16.50;9.60;;;;;;;4.16;84.64;100141.88;110729;247;40817;-57
2023/12/28 23:19:48;;;;;;;15.90;9.70;;;;;;;4.10;84.73;100141.09;110540;245;154974;-63
2023/12/28 23:22:24;;;;;;;14.80;8.70;;;;;;;4.05;84.90;100136.42;110729;248;40135;-60
2023/12/28 23:25:06;;;;;;;15.80;9.80;;;;;;;4.07;84.92;100131.09;110574;247;154091;-58
2023/12/28 23:27:47;;;;;;;14.50;8.70;;;;;;;4.07;84.92;100127.46;110696;248;39855;-57
2023/12/28 23:30:23;;;;;;;14.20;8.40;;;;;;;4.05;84.96;100126.95;110614;244;154423;-58
2023/12/28 23:33:02;;;;;;;15.30;8.20;;;;;;;4.06;84.95;100123.17;110713;247;39963;-59
2023/12/28 23:35:42;;;;;;;15.20;8.40;;;;;;;4.03;84.91;100123.99;110709;247;39373;-57
2023/12/28 23:38:20;;;;;;;15.70;9.00;;;;;;;3.99;84.94;100116.93;110698;248;40161;-57
2023/12/28 23:40:59;;;;;;;14.00;8.20;;;;;;;3.97;84.82;100115.73;110775;248;40734;-60